createdAt,value
2022-10-22T00:00:16.537Z,11.31
2022-10-22T00:01:16.966Z,11.30
2022-10-22T00:02:16.777Z,11.30
2022-10-22T00:03:16.382Z,11.29
2022-10-22T00:04:16.872Z,11.30
2022-10-22T00:05:16.343Z,11.27
2022-10-22T00:06:16.795Z,11.25
2022-10-22T00:07:17.275Z,11.27
2022-10-22T00:08:16.721Z,11.26
2022-10-22T00:09:17.233Z,11.25
2022-10-22T00:10:16.792Z,11.26
2022-10-22T00:11:17.205Z,11.26
2022-10-22T00:12:16.478Z,11.30
2022-10-22T00:13:16.899Z,11.29
2022-10-22T00:14:16.344Z,11.30
2022-10-22T00:15:16.819Z,11.30
2022-10-22T00:16:17.283Z,11.33
2022-10-22T00:17:16.736Z,11.40
2022-10-22T00:18:17.198Z,11.40
2022-10-22T00:19:16.657Z,11.39
2022-10-22T00:20:17.132Z,11.42
2022-10-22T00:21:16.634Z,11.46
2022-10-22T00:22:16.760Z,11.49
2022-10-22T00:23:17.200Z,11.49
2022-10-22T00:24:16.640Z,11.43
2022-10-22T00:25:17.069Z,11.43
2022-10-22T00:26:16.491Z,11.43
2022-10-22T00:27:16.915Z,11.46
2022-10-22T00:28:16.360Z,11.47
2022-10-22T00:29:16.793Z,11.46
2022-10-22T00:30:17.259Z,11.44
2022-10-22T00:31:16.729Z,11.44
2022-10-22T00:32:16.489Z,11.39
2022-10-22T00:33:16.944Z,11.37
2022-10-22T00:34:16.406Z,11.33
2022-10-22T00:35:16.884Z,11.36
2022-10-22T00:36:16.331Z,11.37
2022-10-22T00:37:16.780Z,11.37
2022-10-22T00:38:17.236Z,11.37
2022-10-22T00:39:16.680Z,11.36
2022-10-22T00:40:17.119Z,11.37
2022-10-22T00:41:16.555Z,11.40
2022-10-22T00:42:17.009Z,11.39
2022-10-22T00:43:16.469Z,11.37
2022-10-22T00:44:16.921Z,11.40
2022-10-22T00:45:16.383Z,11.39
2022-10-22T00:46:16.849Z,11.42
2022-10-22T00:47:16.302Z,11.43
2022-10-22T00:48:16.761Z,11.42
2022-10-22T00:49:17.215Z,11.43
2022-10-22T00:50:16.692Z,11.43
2022-10-22T00:51:17.170Z,11.46
2022-10-22T00:52:16.544Z,11.49
2022-10-22T00:53:16.971Z,11.53
2022-10-22T00:54:16.398Z,11.58
2022-10-22T00:55:16.866Z,11.57
2022-10-22T00:56:16.312Z,11.57
2022-10-22T00:57:16.734Z,11.58
2022-10-22T00:58:17.180Z,11.60
2022-10-22T00:59:16.619Z,11.60
2022-10-22T01:00:17.109Z,11.60
2022-10-22T01:01:16.667Z,11.63
2022-10-22T01:02:16.297Z,11.61
2022-10-22T01:03:16.776Z,11.63
2022-10-22T01:04:17.235Z,11.63
2022-10-22T01:05:16.725Z,11.65
2022-10-22T01:06:17.165Z,11.67
2022-10-22T01:07:16.586Z,11.68
2022-10-22T01:08:17.025Z,11.70
2022-10-22T01:09:16.569Z,11.71
2022-10-22T01:10:17.011Z,11.74
2022-10-22T01:11:16.447Z,11.70
2022-10-22T01:12:16.310Z,11.70
2022-10-22T01:13:16.730Z,11.68
2022-10-22T01:14:17.210Z,11.75
2022-10-22T01:15:16.663Z,11.70
2022-10-22T01:16:17.133Z,11.71
2022-10-22T01:17:16.665Z,11.80
2022-10-22T01:18:17.200Z,11.74
2022-10-22T01:19:16.685Z,11.80
2022-10-22T01:20:17.159Z,11.84
2022-10-22T01:21:16.612Z,11.86
2022-10-22T01:22:17.159Z,11.89
2022-10-22T01:23:16.590Z,11.88
2022-10-22T01:24:17.030Z,11.91
2022-10-22T01:25:16.454Z,11.88
2022-10-22T01:26:16.906Z,11.93
2022-10-22T01:27:16.504Z,11.91
2022-10-22T01:28:16.929Z,11.88
2022-10-22T01:29:16.394Z,11.88
2022-10-22T01:30:16.877Z,11.85
2022-10-22T01:31:16.350Z,11.81
2022-10-22T01:32:17.252Z,11.81
2022-10-22T01:33:16.710Z,11.81
2022-10-22T01:34:17.196Z,11.82
2022-10-22T01:35:16.639Z,11.84
2022-10-22T01:36:17.063Z,11.85
2022-10-22T01:37:16.516Z,11.84
2022-10-22T01:38:16.950Z,11.88
2022-10-22T01:39:16.369Z,11.92
2022-10-22T01:40:16.842Z,11.95
2022-10-22T01:41:17.268Z,11.92
2022-10-22T01:42:17.149Z,11.93
2022-10-22T01:43:16.616Z,11.95
2022-10-22T01:44:17.103Z,11.93
2022-10-22T01:45:16.602Z,11.92
2022-10-22T01:46:17.079Z,11.89
2022-10-22T01:47:16.536Z,11.89
2022-10-22T01:48:17.007Z,11.86
2022-10-22T01:49:16.484Z,11.86
2022-10-22T01:50:16.925Z,11.85
2022-10-22T01:51:16.357Z,11.89
2022-10-22T01:52:16.815Z,11.88
2022-10-22T01:53:17.271Z,12.03
2022-10-22T01:54:16.694Z,12.06
2022-10-22T01:55:17.132Z,12.02
2022-10-22T01:56:16.559Z,12.02
2022-10-22T01:57:17.040Z,11.96
2022-10-22T01:58:16.516Z,11.91
2022-10-22T01:59:16.985Z,11.92
2022-10-22T02:00:16.469Z,11.93
2022-10-22T02:01:16.908Z,11.96
2022-10-22T02:02:16.643Z,12.05
2022-10-22T02:03:18.521Z,12.06
2022-10-22T02:04:17.174Z,12.05
2022-10-22T02:05:16.623Z,12.05
2022-10-22T02:06:17.044Z,12.09
2022-10-22T02:07:16.464Z,12.15
2022-10-22T02:08:16.950Z,12.13
2022-10-22T02:09:16.462Z,12.20
2022-10-22T02:10:17.045Z,12.36
2022-10-22T02:11:16.475Z,12.35
2022-10-22T02:12:16.990Z,12.37
2022-10-22T02:13:16.475Z,12.39
2022-10-22T02:14:16.950Z,12.41
2022-10-22T02:15:16.413Z,12.41
2022-10-22T02:16:16.869Z,12.44
2022-10-22T02:17:16.328Z,12.50
2022-10-22T02:18:16.784Z,12.51
2022-10-22T02:19:17.227Z,12.50
2022-10-22T02:20:16.679Z,12.50
2022-10-22T02:21:17.142Z,12.49
2022-10-22T02:22:16.858Z,12.44
2022-10-22T02:23:17.319Z,12.49
2022-10-22T02:24:16.733Z,12.50
2022-10-22T02:25:17.184Z,12.50
2022-10-22T02:26:16.659Z,12.50
2022-10-22T02:27:17.123Z,12.50
2022-10-22T02:28:16.568Z,12.47
2022-10-22T02:29:17.012Z,12.50
2022-10-22T02:31:16.905Z,12.46
2022-10-22T02:32:17.104Z,12.46
2022-10-22T02:33:16.566Z,12.53
2022-10-22T02:34:17.002Z,12.53
2022-10-22T02:35:16.494Z,12.47
2022-10-22T02:36:16.970Z,12.41
2022-10-22T02:37:16.422Z,12.44
2022-10-22T02:38:16.765Z,12.43
2022-10-22T02:40:16.620Z,12.43
2022-10-22T02:41:17.094Z,12.39
2022-10-22T02:42:16.661Z,12.37
2022-10-22T02:43:17.163Z,12.37
2022-10-22T02:44:16.631Z,12.40
2022-10-22T02:45:17.090Z,12.40
2022-10-22T02:46:16.561Z,12.39
2022-10-22T02:47:17.060Z,12.35
2022-10-22T02:48:16.581Z,12.26
2022-10-22T02:49:17.173Z,12.20
2022-10-22T02:50:16.616Z,12.30
2022-10-22T02:51:17.063Z,12.32
2022-10-22T02:52:16.843Z,12.35
2022-10-22T02:53:17.297Z,12.35
2022-10-22T02:54:16.760Z,12.44
2022-10-22T02:55:17.209Z,12.37
2022-10-22T02:56:16.667Z,12.33
2022-10-22T02:57:17.171Z,12.33
2022-10-22T02:58:16.708Z,12.36
2022-10-22T02:59:17.182Z,12.33
2022-10-22T03:00:16.647Z,12.30
2022-10-22T03:01:17.160Z,12.35
2022-10-22T03:02:16.739Z,12.33
2022-10-22T03:03:17.234Z,12.35
2022-10-22T03:04:16.659Z,12.32
2022-10-22T03:05:17.104Z,12.32
2022-10-22T03:06:16.606Z,12.30
2022-10-22T03:07:17.181Z,12.32
2022-10-22T03:08:16.595Z,12.32
2022-10-22T03:09:19.021Z,12.30
2022-10-22T03:10:17.111Z,12.30
2022-10-22T03:11:16.578Z,12.28
2022-10-22T03:12:16.357Z,12.30
2022-10-22T03:13:16.811Z,12.29
2022-10-22T03:14:17.288Z,12.29
2022-10-22T03:15:16.832Z,12.32
2022-10-22T03:16:16.462Z,12.29
2022-10-22T03:17:16.944Z,12.26
2022-10-22T03:18:16.365Z,12.19
2022-10-22T03:19:16.827Z,12.19
2022-10-22T03:20:17.255Z,12.19
2022-10-22T03:21:16.675Z,12.18
2022-10-22T03:22:16.353Z,12.19
2022-10-22T03:23:16.797Z,12.23
2022-10-22T03:24:17.245Z,12.22
2022-10-22T03:25:16.728Z,12.23
2022-10-22T03:26:17.181Z,12.20
2022-10-22T03:27:16.656Z,12.23
2022-10-22T03:28:17.128Z,12.20
2022-10-22T03:29:16.598Z,12.19
2022-10-22T03:30:17.109Z,12.19
2022-10-22T03:31:16.593Z,12.19
2022-10-22T03:32:17.250Z,12.16
2022-10-22T03:33:16.701Z,12.13
2022-10-22T03:34:17.122Z,12.16
2022-10-22T03:35:16.559Z,12.09
2022-10-22T03:36:17.010Z,12.09
2022-10-22T03:37:16.458Z,12.13
2022-10-22T03:38:16.896Z,12.16
2022-10-22T03:39:16.357Z,12.15
2022-10-22T03:40:16.830Z,12.11
2022-10-22T03:41:16.317Z,12.16
2022-10-22T03:42:16.709Z,12.12
2022-10-22T03:43:17.219Z,12.16
2022-10-22T03:44:16.667Z,12.18
2022-10-22T03:45:17.156Z,12.20
2022-10-22T03:46:16.613Z,12.19
2022-10-22T03:47:17.058Z,12.19
2022-10-22T03:48:16.505Z,12.19
2022-10-22T03:49:16.947Z,12.18
2022-10-22T03:50:16.396Z,12.18
2022-10-22T03:51:16.840Z,12.16
2022-10-22T03:52:16.550Z,12.20
2022-10-22T03:53:16.986Z,12.16
2022-10-22T03:54:16.416Z,12.18
2022-10-22T03:55:16.890Z,12.19
2022-10-22T03:56:16.348Z,12.20
2022-10-22T03:57:16.804Z,12.22
2022-10-22T03:58:17.311Z,12.26
2022-10-22T03:59:16.780Z,12.23
2022-10-22T04:00:17.249Z,12.23
2022-10-22T04:01:16.730Z,12.22
2022-10-22T04:02:17.125Z,12.19
2022-10-22T04:03:16.540Z,12.19
2022-10-22T04:04:16.964Z,12.16
2022-10-22T04:05:16.410Z,12.16
2022-10-22T04:06:16.856Z,12.18
2022-10-22T04:07:16.318Z,12.13
2022-10-22T04:08:16.746Z,12.13
2022-10-22T04:09:17.207Z,12.09
2022-10-22T04:10:16.787Z,12.11
2022-10-22T04:11:17.250Z,12.09
2022-10-22T04:12:16.805Z,12.12
2022-10-22T04:13:17.300Z,12.13
2022-10-22T04:14:16.744Z,12.12
2022-10-22T04:15:17.206Z,12.12
2022-10-22T04:16:16.694Z,12.13
2022-10-22T04:17:17.159Z,12.12
2022-10-22T04:18:16.615Z,12.16
2022-10-22T04:19:17.069Z,12.13
2022-10-22T04:20:16.529Z,12.15
2022-10-22T04:21:16.963Z,12.12
2022-10-22T04:22:16.899Z,12.15
2022-10-22T04:23:16.320Z,12.09
2022-10-22T04:24:16.745Z,12.12
2022-10-22T04:25:17.218Z,12.12
2022-10-22T04:26:16.699Z,12.12
2022-10-22T04:27:17.151Z,12.11
2022-10-22T04:28:16.596Z,12.09
2022-10-22T04:29:17.067Z,12.09
2022-10-22T04:30:16.542Z,12.11
2022-10-22T04:31:17.061Z,12.11
2022-10-22T04:32:16.908Z,12.11
2022-10-22T04:33:16.331Z,12.11
2022-10-22T04:34:16.751Z,12.08
2022-10-22T04:35:17.252Z,12.11
2022-10-22T04:36:16.789Z,12.11
2022-10-22T04:37:17.210Z,12.12
2022-10-22T04:38:16.636Z,12.11
2022-10-22T04:39:17.115Z,12.06
2022-10-22T04:40:16.558Z,12.08
2022-10-22T04:41:17.059Z,12.05
2022-10-22T04:42:16.917Z,12.05
2022-10-22T04:43:16.376Z,12.06
2022-10-22T04:44:17.035Z,12.06
2022-10-22T04:45:16.377Z,12.03
2022-10-22T04:46:16.892Z,12.02
2022-10-22T04:47:16.338Z,11.99
2022-10-22T04:48:16.758Z,11.98
2022-10-22T04:49:17.196Z,12.03
2022-10-22T04:50:16.631Z,12.06
2022-10-22T04:51:17.066Z,12.05
2022-10-22T04:52:16.936Z,12.06
2022-10-22T04:53:16.406Z,12.02
2022-10-22T04:54:16.839Z,12.03
2022-10-22T04:55:16.307Z,12.05
2022-10-22T04:56:16.764Z,12.02
2022-10-22T04:57:17.254Z,12.05
2022-10-22T04:58:16.740Z,12.02
2022-10-22T04:59:17.222Z,12.01
2022-10-22T05:00:16.695Z,11.98
2022-10-22T05:01:17.299Z,12.01
2022-10-22T05:02:16.667Z,12.01
2022-10-22T05:03:17.178Z,11.98
2022-10-22T05:04:16.610Z,11.96
2022-10-22T05:05:17.040Z,11.96
2022-10-22T05:06:16.493Z,11.95
2022-10-22T05:07:16.944Z,11.95
2022-10-22T05:08:16.371Z,11.98
2022-10-22T05:09:16.881Z,11.93
2022-10-22T05:10:16.540Z,11.93
2022-10-22T05:11:17.000Z,11.93
2022-10-22T05:12:16.747Z,11.96
2022-10-22T05:13:17.238Z,11.93
2022-10-22T05:14:16.700Z,11.95
2022-10-22T05:15:17.209Z,11.95
2022-10-22T05:16:16.666Z,11.89
2022-10-22T05:17:17.104Z,11.85
2022-10-22T05:18:17.845Z,11.86
2022-10-22T05:19:17.001Z,11.80
2022-10-22T05:20:16.422Z,11.82
2022-10-22T05:21:16.860Z,11.80
2022-10-22T05:22:16.780Z,11.80
2022-10-22T05:23:17.262Z,11.78
2022-10-22T05:24:16.721Z,11.75
2022-10-22T05:25:17.193Z,11.72
2022-10-22T05:26:16.653Z,11.71
2022-10-22T05:28:16.593Z,11.71
2022-10-22T05:29:17.073Z,11.67
2022-10-22T05:30:16.544Z,11.67
2022-10-22T05:31:17.009Z,11.61
2022-10-22T05:32:16.587Z,11.60
2022-10-22T05:33:19.660Z,11.63
2022-10-22T05:34:16.511Z,11.57
2022-10-22T05:35:16.953Z,11.57
2022-10-22T05:36:16.383Z,11.58
2022-10-22T05:37:16.846Z,11.58
2022-10-22T05:38:17.309Z,11.55
2022-10-22T05:39:16.767Z,11.53
2022-10-22T05:40:26.785Z,11.50
2022-10-22T05:41:16.679Z,11.49
2022-10-22T05:42:16.862Z,11.51
2022-10-22T05:43:16.361Z,11.43
2022-10-22T05:44:16.839Z,11.42
2022-10-22T05:45:16.283Z,11.40
2022-10-22T05:46:21.375Z,11.40
2022-10-22T05:47:16.465Z,11.33
2022-10-22T05:48:16.891Z,11.33
2022-10-22T05:49:16.368Z,11.33
2022-10-22T05:50:16.789Z,11.34
2022-10-22T05:51:17.217Z,11.31
2022-10-22T05:52:16.572Z,11.29
2022-10-22T05:53:17.035Z,11.26
2022-10-22T05:54:16.500Z,11.26
2022-10-22T05:55:16.997Z,11.23
2022-10-22T05:56:16.474Z,11.17
2022-10-22T05:57:16.927Z,11.20
2022-10-22T05:58:16.408Z,11.23
2022-10-22T05:59:16.906Z,11.19
2022-10-22T06:00:16.541Z,11.15
2022-10-22T06:01:17.141Z,11.15
2022-10-22T06:02:16.818Z,11.15
2022-10-22T06:03:16.316Z,11.19
2022-10-22T06:04:16.761Z,11.15
2022-10-22T06:05:17.199Z,11.16
2022-10-22T06:06:16.688Z,11.17
2022-10-22T06:07:17.153Z,11.13
2022-10-22T06:08:18.173Z,11.07
2022-10-22T06:09:16.649Z,11.05
2022-10-22T06:10:17.135Z,10.99
2022-10-22T06:11:16.595Z,11.07
2022-10-22T06:12:16.942Z,11.10
2022-10-22T06:13:16.362Z,11.09
2022-10-22T06:14:16.824Z,11.06
2022-10-22T06:15:17.281Z,11.07
2022-10-22T06:16:16.717Z,11.05
2022-10-22T06:17:17.150Z,11.06
2022-10-22T06:18:16.577Z,11.10
2022-10-22T06:19:16.999Z,11.09
2022-10-22T06:20:16.488Z,11.06
2022-10-22T06:21:16.980Z,11.05
2022-10-22T06:22:16.900Z,11.06
2022-10-22T06:23:16.374Z,11.10
2022-10-22T06:24:16.830Z,11.17
2022-10-22T06:25:16.311Z,11.19
2022-10-22T06:26:16.790Z,11.17
2022-10-22T06:27:17.269Z,11.16
2022-10-22T06:28:16.759Z,11.19
2022-10-22T06:29:17.251Z,11.25
2022-10-22T06:30:16.713Z,11.27
2022-10-22T06:31:17.131Z,11.30
2022-10-22T06:32:16.757Z,11.33
2022-10-22T06:33:17.225Z,11.30
2022-10-22T06:34:16.660Z,11.31
2022-10-22T06:35:17.143Z,11.36
2022-10-22T06:36:16.619Z,11.33
2022-10-22T06:37:17.121Z,11.39
2022-10-22T06:38:16.623Z,11.36
2022-10-22T06:39:17.125Z,11.36
2022-10-22T06:40:16.608Z,11.42
2022-10-22T06:41:17.089Z,11.40
2022-10-22T06:42:16.824Z,11.39
2022-10-22T06:43:17.291Z,11.42
2022-10-22T06:44:16.717Z,11.44
2022-10-22T06:45:17.144Z,11.44
2022-10-22T06:46:18.965Z,11.49
2022-10-22T06:47:16.715Z,11.49
2022-10-22T06:48:17.142Z,11.51
2022-10-22T06:49:16.594Z,11.53
2022-10-22T06:50:17.038Z,11.51
2022-10-22T06:51:16.496Z,11.53
2022-10-22T06:52:16.870Z,11.53
2022-10-22T06:53:16.396Z,11.55
2022-10-22T06:54:16.987Z,11.54
2022-10-22T06:55:16.435Z,11.55
2022-10-22T06:56:16.888Z,11.55
2022-10-22T06:57:16.318Z,11.60
2022-10-22T06:58:16.752Z,11.63
2022-10-22T06:59:17.175Z,11.64
2022-10-22T07:00:16.670Z,11.68
2022-10-22T07:01:17.170Z,11.65
2022-10-22T07:02:16.599Z,11.71
2022-10-22T07:03:17.040Z,11.74
2022-10-22T07:04:16.496Z,11.72
2022-10-22T07:05:16.952Z,11.74
2022-10-22T07:06:16.416Z,11.70
2022-10-22T07:07:16.875Z,11.65
2022-10-22T07:08:16.344Z,11.67
2022-10-22T07:10:17.296Z,11.60
2022-10-22T07:11:16.749Z,11.58
2022-10-22T07:12:16.595Z,11.53
2022-10-22T07:13:17.041Z,11.49
2022-10-22T07:14:16.484Z,11.51
2022-10-22T07:15:16.946Z,11.50
2022-10-22T07:16:16.373Z,11.50
2022-10-22T07:17:16.838Z,11.47
2022-10-22T07:18:17.289Z,11.47
2022-10-22T07:19:16.763Z,11.46
2022-10-22T07:20:17.218Z,11.46
2022-10-22T07:21:16.691Z,11.46
2022-10-22T07:22:16.544Z,11.47
2022-10-22T07:23:17.048Z,11.44
2022-10-22T07:24:16.528Z,11.43
2022-10-22T07:25:16.994Z,11.44
2022-10-22T07:26:16.442Z,11.49
2022-10-22T07:27:16.884Z,11.49
2022-10-22T07:28:16.356Z,11.43
2022-10-22T07:29:16.783Z,11.40
2022-10-22T07:30:17.227Z,11.33
2022-10-22T07:31:16.662Z,11.30
2022-10-22T07:32:18.030Z,11.27
2022-10-22T07:33:17.316Z,11.29
2022-10-22T07:34:16.858Z,11.25
2022-10-22T07:35:16.403Z,11.20
2022-10-22T07:36:16.869Z,11.26
2022-10-22T07:37:16.345Z,11.26
2022-10-22T07:38:16.796Z,11.25
2022-10-22T07:39:17.268Z,11.30
2022-10-22T07:40:16.737Z,11.36
2022-10-22T07:41:17.226Z,11.39
2022-10-22T07:42:16.923Z,11.40
2022-10-22T07:43:16.433Z,11.46
2022-10-22T07:44:16.863Z,11.47
2022-10-22T07:45:16.296Z,11.47
2022-10-22T07:46:16.737Z,11.51
2022-10-22T07:47:17.200Z,11.58
2022-10-22T07:48:16.664Z,11.58
2022-10-22T07:49:17.143Z,11.58
2022-10-22T07:50:16.616Z,11.65
2022-10-22T07:51:17.093Z,11.68
2022-10-22T07:52:16.550Z,11.71
2022-10-22T07:53:17.036Z,11.75
2022-10-22T07:54:16.512Z,11.80
2022-10-22T07:55:16.936Z,11.89
2022-10-22T07:56:16.367Z,11.95
2022-10-22T07:57:17.004Z,11.96
2022-10-22T07:58:16.429Z,12.08
2022-10-22T07:59:16.856Z,12.13
2022-10-22T08:00:16.295Z,12.22
2022-10-22T08:01:17.185Z,12.30
2022-10-22T08:02:16.890Z,12.37
2022-10-22T08:03:16.362Z,12.44
2022-10-22T08:04:16.822Z,12.43
2022-10-22T08:05:17.308Z,12.50
2022-10-22T08:06:16.770Z,12.56
2022-10-22T08:07:17.273Z,12.63
2022-10-22T08:08:16.863Z,12.61
2022-10-22T08:09:16.388Z,12.67
2022-10-22T08:10:16.861Z,12.71
2022-10-22T08:11:16.327Z,12.77
2022-10-22T08:12:16.940Z,12.68
2022-10-22T08:13:16.373Z,12.72
2022-10-22T08:14:16.845Z,12.77
2022-10-22T08:15:16.317Z,12.74
2022-10-22T08:16:16.749Z,12.68
2022-10-22T08:17:17.205Z,12.64
2022-10-22T08:18:16.696Z,12.68
2022-10-22T08:19:17.158Z,12.74
2022-10-22T08:20:16.661Z,12.77
2022-10-22T08:21:17.153Z,12.72
2022-10-22T08:22:17.201Z,12.71
2022-10-22T08:23:16.647Z,12.71
2022-10-22T08:24:17.076Z,12.66
2022-10-22T08:25:16.507Z,12.64
2022-10-22T08:26:16.941Z,12.67
2022-10-22T08:27:16.368Z,12.63
2022-10-22T08:28:18.666Z,12.64
2022-10-22T08:29:16.765Z,12.63
2022-10-22T08:30:17.214Z,12.64
2022-10-22T08:31:16.717Z,12.61
2022-10-22T08:32:17.055Z,12.58
2022-10-22T08:33:16.650Z,12.60
2022-10-22T08:34:17.123Z,12.60
2022-10-22T08:35:16.907Z,12.63
2022-10-22T08:36:17.252Z,12.63
2022-10-22T08:37:16.703Z,12.66
2022-10-22T08:38:17.169Z,12.70
2022-10-22T08:39:16.585Z,12.74
2022-10-22T08:40:17.025Z,12.77
2022-10-22T08:41:16.478Z,12.81
2022-10-22T08:42:16.930Z,12.82
2022-10-22T08:43:16.355Z,12.84
2022-10-22T08:44:16.772Z,12.88
2022-10-22T08:45:17.235Z,12.89
2022-10-22T08:46:16.742Z,12.88
2022-10-22T08:47:18.623Z,12.89
2022-10-22T08:48:17.051Z,12.98
2022-10-22T08:49:16.529Z,12.99
2022-10-22T08:50:16.983Z,12.92
2022-10-22T08:51:16.445Z,12.98
2022-10-22T08:52:17.316Z,12.94
2022-10-22T08:53:16.739Z,12.87
2022-10-22T08:54:17.164Z,12.85
2022-10-22T08:55:16.632Z,13.02
2022-10-22T08:56:17.053Z,13.01
2022-10-22T08:57:16.484Z,13.01
2022-10-22T08:58:16.925Z,13.02
2022-10-22T08:59:16.369Z,13.02
2022-10-22T09:00:16.799Z,13.08
2022-10-22T09:01:17.260Z,13.08
2022-10-22T09:02:17.243Z,13.08
2022-10-22T09:03:16.700Z,13.14
2022-10-22T09:04:17.185Z,13.15
2022-10-22T09:05:16.649Z,13.14
2022-10-22T09:06:17.144Z,13.23
2022-10-22T09:07:16.605Z,13.29
2022-10-22T09:08:17.048Z,13.32
2022-10-22T09:09:16.602Z,13.36
2022-10-22T09:10:17.219Z,13.37
2022-10-22T09:11:16.643Z,13.37
2022-10-22T09:12:19.281Z,13.39
2022-10-22T09:13:16.969Z,13.36
2022-10-22T09:15:17.008Z,13.53
2022-10-22T09:16:16.535Z,13.50
2022-10-22T09:17:16.999Z,13.51
2022-10-22T09:18:16.470Z,13.55
2022-10-22T09:19:16.981Z,13.63
2022-10-22T09:20:16.470Z,13.64
2022-10-22T09:21:17.151Z,13.67
2022-10-22T09:22:16.401Z,13.68
2022-10-22T09:23:16.825Z,13.70
2022-10-22T09:24:17.263Z,13.71
2022-10-22T09:25:16.692Z,13.77
2022-10-22T09:26:17.135Z,13.94
2022-10-22T09:27:16.567Z,13.95
2022-10-22T09:28:17.011Z,14.12
2022-10-22T09:29:16.458Z,14.11
2022-10-22T09:30:16.313Z,14.33
2022-10-22T09:31:16.813Z,14.30
2022-10-22T09:32:16.617Z,14.37
2022-10-22T09:33:20.162Z,14.41
2022-10-22T09:34:17.171Z,14.43
2022-10-22T09:35:16.658Z,14.55
2022-10-22T09:36:17.153Z,14.57
2022-10-22T09:37:16.575Z,14.64
2022-10-22T09:38:17.030Z,14.62
2022-10-22T09:40:16.878Z,14.71
2022-10-22T09:41:16.351Z,14.56
2022-10-22T09:42:16.407Z,14.62
2022-10-22T09:43:16.857Z,14.80
2022-10-22T09:44:16.316Z,14.81
2022-10-22T09:45:16.814Z,14.66
2022-10-22T09:46:17.303Z,14.62
2022-10-22T09:47:16.793Z,14.60
2022-10-22T09:48:17.294Z,14.60
2022-10-22T09:49:16.754Z,14.62
2022-10-22T09:50:17.305Z,14.59
2022-10-22T09:51:16.761Z,14.70
2022-10-22T09:52:16.857Z,14.68
2022-10-22T09:53:16.325Z,14.71
2022-10-22T09:54:16.795Z,14.91
2022-10-22T09:55:17.224Z,14.95
2022-10-22T09:56:16.704Z,15.08
2022-10-22T09:57:17.157Z,15.11
2022-10-22T09:58:16.624Z,15.15
2022-10-22T09:59:17.111Z,15.16
2022-10-22T10:00:16.606Z,15.19
2022-10-22T10:01:17.088Z,15.18
2022-10-22T10:02:20.519Z,15.23
2022-10-22T10:03:17.287Z,15.29
2022-10-22T10:04:16.863Z,15.33
2022-10-22T10:05:16.409Z,15.43
2022-10-22T10:06:16.850Z,15.53
2022-10-22T10:07:17.285Z,15.60
2022-10-22T10:08:16.717Z,15.60
2022-10-22T10:09:17.229Z,15.73
2022-10-22T10:10:16.835Z,15.82
2022-10-22T10:11:17.269Z,15.94
2022-10-22T10:12:17.300Z,15.87
2022-10-22T10:13:16.761Z,15.76
2022-10-22T10:14:17.278Z,15.78
2022-10-22T10:15:16.739Z,15.46
2022-10-22T10:16:17.203Z,15.49
2022-10-22T10:17:16.677Z,15.67
2022-10-22T10:18:17.160Z,15.67
2022-10-22T10:19:16.636Z,15.71
2022-10-22T10:20:17.063Z,15.49
2022-10-22T10:21:16.517Z,15.57
2022-10-22T10:22:16.846Z,15.59
2022-10-22T10:23:17.951Z,15.66
2022-10-22T10:24:16.780Z,15.74
2022-10-22T10:25:17.212Z,15.73
2022-10-22T10:26:16.639Z,15.52
2022-10-22T10:27:17.102Z,15.41
2022-10-22T10:28:16.557Z,15.36
2022-10-22T10:29:17.026Z,15.39
2022-10-22T10:30:16.532Z,15.46
2022-10-22T10:31:17.054Z,15.53
2022-10-22T10:32:18.819Z,15.80
2022-10-22T10:33:16.784Z,15.70
2022-10-22T10:34:17.250Z,15.67
2022-10-22T10:35:16.692Z,15.63
2022-10-22T10:36:17.159Z,15.76
2022-10-22T10:37:16.589Z,15.64
2022-10-22T10:38:17.062Z,15.71
2022-10-22T10:39:16.507Z,15.78
2022-10-22T10:40:16.946Z,15.74
2022-10-22T10:41:16.395Z,15.73
2022-10-22T10:42:16.421Z,15.77
2022-10-22T10:43:16.875Z,15.95
2022-10-22T10:44:16.368Z,15.95
2022-10-22T10:45:16.832Z,15.70
2022-10-22T10:47:16.729Z,15.78
2022-10-22T10:48:17.217Z,15.74
2022-10-22T10:49:16.696Z,15.66
2022-10-22T10:50:17.115Z,15.64
2022-10-22T10:51:16.550Z,15.76
2022-10-22T10:52:18.811Z,15.85
2022-10-22T10:53:16.851Z,15.81
2022-10-22T10:54:17.289Z,15.77
2022-10-22T10:55:16.750Z,15.87
2022-10-22T10:56:17.195Z,15.87
2022-10-22T10:57:16.670Z,16.00
2022-10-22T10:58:17.125Z,16.05
2022-10-22T10:59:16.581Z,16.09
2022-10-22T11:00:17.050Z,16.07
2022-10-22T11:01:16.522Z,16.35
2022-10-22T11:02:16.362Z,16.38
2022-10-22T11:03:16.831Z,16.36
2022-10-22T11:04:17.253Z,16.43
2022-10-22T11:05:16.718Z,16.50
2022-10-22T11:06:17.295Z,16.50
2022-10-22T11:07:30.146Z,16.56
2022-10-22T11:08:17.067Z,16.45
2022-10-22T11:09:16.573Z,16.46
2022-10-22T11:10:17.128Z,16.42
2022-10-22T11:12:17.191Z,16.64
2022-10-22T11:13:16.643Z,16.66
2022-10-22T11:14:17.129Z,16.66
2022-10-22T11:15:16.583Z,16.68
2022-10-22T11:16:17.120Z,16.76
2022-10-22T11:17:16.572Z,16.86
2022-10-22T11:18:17.020Z,16.97
2022-10-22T11:19:18.548Z,17.01
2022-10-22T11:20:16.590Z,17.05
2022-10-22T11:21:17.014Z,17.07
2022-10-22T11:22:16.894Z,17.15
2022-10-22T11:23:20.707Z,17.18
2022-10-22T11:24:16.655Z,17.29
2022-10-22T11:25:17.089Z,17.35
2022-10-22T11:26:16.545Z,17.59
2022-10-22T11:27:17.038Z,17.62
2022-10-22T11:28:16.613Z,17.50
2022-10-22T11:29:17.160Z,17.70
2022-10-22T11:30:16.637Z,17.66
2022-10-22T11:31:17.111Z,17.68
2022-10-22T11:32:16.893Z,17.72
2022-10-22T11:33:16.366Z,17.74
2022-10-22T11:34:32.476Z,17.80
2022-10-22T11:35:17.157Z,17.79
2022-10-22T11:36:16.591Z,17.68
2022-10-22T11:37:17.068Z,17.53
2022-10-22T11:38:16.528Z,17.53
2022-10-22T11:39:16.997Z,17.49
2022-10-22T11:40:16.445Z,17.42
2022-10-22T11:41:16.911Z,17.39
2022-10-22T11:42:17.301Z,17.43
2022-10-22T11:43:16.804Z,17.42
2022-10-22T11:44:17.274Z,17.31
2022-10-22T11:45:16.816Z,17.33
2022-10-22T11:46:17.298Z,17.29
2022-10-22T11:47:16.762Z,17.24
2022-10-22T11:48:17.245Z,17.21
2022-10-22T11:49:16.761Z,17.10
2022-10-22T11:50:17.194Z,17.04
2022-10-22T11:51:16.629Z,17.08
2022-10-22T11:52:17.056Z,17.00
2022-10-22T11:53:16.477Z,17.01
2022-10-22T11:54:16.934Z,17.01
2022-10-22T11:55:16.386Z,17.00
2022-10-22T11:56:16.862Z,17.04
2022-10-22T11:57:16.310Z,17.04
2022-10-22T11:58:16.804Z,17.10
2022-10-22T11:59:17.248Z,17.19
2022-10-22T12:00:16.722Z,17.18
2022-10-22T12:01:17.205Z,17.28
2022-10-22T12:02:16.623Z,17.31
2022-10-22T12:03:17.085Z,17.31
2022-10-22T12:04:16.593Z,17.36
2022-10-22T12:05:17.098Z,17.38
2022-10-22T12:06:16.552Z,17.38
2022-10-22T12:07:16.986Z,17.49
2022-10-22T12:08:16.432Z,17.48
2022-10-22T12:09:16.931Z,17.45
2022-10-22T12:10:18.307Z,17.56
2022-10-22T12:11:17.001Z,17.72
2022-10-22T12:12:17.154Z,17.68
2022-10-22T12:13:16.629Z,17.79
2022-10-22T12:14:17.159Z,17.74
2022-10-22T12:15:16.665Z,17.66
2022-10-22T12:16:20.471Z,17.73
2022-10-22T12:17:16.758Z,17.80
2022-10-22T12:18:17.226Z,17.91
2022-10-22T12:19:16.655Z,17.94
2022-10-22T12:20:17.084Z,18.01
2022-10-22T12:21:16.539Z,18.04
2022-10-22T12:22:16.889Z,18.11
2022-10-22T12:23:16.356Z,18.22
2022-10-22T12:24:16.804Z,18.25
2022-10-22T12:25:17.278Z,18.24
2022-10-22T12:26:16.728Z,18.14
2022-10-22T12:27:18.137Z,18.10
2022-10-22T12:28:17.217Z,18.15
2022-10-22T12:29:16.689Z,18.22
2022-10-22T12:30:17.160Z,18.46
2022-10-22T12:31:16.620Z,18.49
2022-10-22T12:32:16.964Z,18.49
2022-10-22T12:33:16.418Z,18.41
2022-10-22T12:34:16.841Z,18.60
2022-10-22T12:35:17.290Z,18.76
2022-10-22T12:36:16.733Z,18.80
2022-10-22T12:37:17.153Z,18.76
2022-10-22T12:38:16.604Z,18.82
2022-10-22T12:39:17.048Z,18.82
2022-10-22T12:40:16.491Z,18.77
2022-10-22T12:41:16.946Z,18.58
2022-10-22T12:42:17.067Z,18.49
2022-10-22T12:43:16.552Z,18.41
2022-10-22T12:44:17.028Z,18.36
2022-10-22T12:45:16.503Z,18.36
2022-10-22T12:46:16.989Z,18.32
2022-10-22T12:47:16.430Z,18.28
2022-10-22T12:48:16.908Z,18.12
2022-10-22T12:49:16.448Z,18.15
2022-10-22T12:50:16.889Z,18.11
2022-10-22T12:51:16.326Z,18.07
2022-10-22T12:52:16.304Z,18.01
2022-10-22T12:53:16.777Z,18.00
2022-10-22T12:54:17.263Z,18.07
2022-10-22T12:55:16.716Z,18.04
2022-10-22T12:56:17.172Z,18.07
2022-10-22T12:57:16.639Z,18.08
2022-10-22T12:58:17.128Z,18.22
2022-10-22T12:59:16.596Z,18.18
2022-10-22T13:00:17.060Z,18.32